CheckWX is a tool to help pilots better visualize weather data.  It is not intended as a substitute for an official pre-flight weather briefing.

06:21:15 UTC

KJFK METAR
John F Kennedy International Airport
New York, New York, USA
Current

30 mins ago

KJFK 030551Z 32021G32KT 10SM -RA OVC050 08/02 A2960 RMK AO2 PK WND 34032/0544 RAE05B25 SLP021 P0000 60000 T00830022 10122 20083 57012
Observed
Apr-3 @ 05:51 UTC
Wind
  • 320° at 21 KTS
  • Gusting to 32 KTS
Visibility
Flight Rules
VFR
Conditions
Light Rain
Cloud Levels
  • Overcast at 5,000' AGL
Temperature
C / 46°F
Dewpoint
C / 36°F
Humidity
66%
Altimeter
29.6" Hg
Pressure
1002.42 hPa
Current Rain
0.01"
Previous

2 hours ago

KJFK 030451Z 32023G28KT 10SM -RA BKN060 OVC090 09/01 A2961 RMK AO2 PK WND 32031/0359 RAB16 SLP025 P0000 T00940011 401560033
Observed
Apr-3 @ 04:51 UTC
Wind
  • 320° at 23 KTS
  • Gusting to 28 KTS
Visibility
Flight Rules
VFR
Conditions
Light Rain
Cloud Levels
  • Broken at 6,000' AGL
  • Overcast at 9,000' AGL
Dewpoint
C / 34°F
Humidity
58%
Altimeter
29.61" Hg
Pressure
1002.72 hPa
Current Rain
0.01"
Previous

3 hours ago

KJFK 030351Z 33021G26KT 10SM BKN070 OVC250 10/M01 A2962 RMK AO2 PK WND 34034/0317 SLP029 T01001006
Observed
Apr-3 @ 03:51 UTC
Wind
  • 330° at 21 KTS
  • Gusting to 26 KTS
Visibility
Flight Rules
VFR
Cloud Levels
  • Broken at 7,000' AGL
  • Overcast at 25,000' AGL
Temperature
10°C / 50°F
Dewpoint
-1°C / 30°F
Humidity
47%
Altimeter
29.62" Hg
Pressure
1003.02 hPa